sensor_id;sensor_type;location;lat;lon;timestamp;P1;durP1;ratioP1;P2;durP2;ratioP2
69912;SDS011;57198;52.082;5.108;2023-02-28T00:00:18;3.65;;;3.05;;
69912;SDS011;57198;52.082;5.108;2023-02-28T00:02:46;4.03;;;3.53;;
69912;SDS011;57198;52.082;5.108;2023-02-28T00:05:15;3.67;;;3.00;;
69912;SDS011;57198;52.082;5.108;2023-02-28T00:07:43;4.45;;;3.30;;
69912;SDS011;57198;52.082;5.108;2023-02-28T00:10:11;6.57;;;3.50;;
69912;SDS011;57198;52.082;5.108;2023-02-28T00:12:39;3.55;;;3.25;;
69912;SDS011;57198;52.082;5.108;2023-02-28T00:15:10;3.90;;;3.10;;
69912;SDS011;57198;52.082;5.108;2023-02-28T00:17:37;4.38;;;3.30;;
69912;SDS011;57198;52.082;5.108;2023-02-28T00:20:05;5.05;;;3.17;;
69912;SDS011;57198;52.082;5.108;2023-02-28T00:22:37;6.80;;;3.75;;
69912;SDS011;57198;52.082;5.108;2023-02-28T00:25:04;7.07;;;3.60;;
69912;SDS011;57198;52.082;5.108;2023-02-28T00:27:34;4.38;;;3.38;;
69912;SDS011;57198;52.082;5.108;2023-02-28T00:30:03;5.75;;;3.22;;
69912;SDS011;57198;52.082;5.108;2023-02-28T00:32:31;5.80;;;2.80;;
69912;SDS011;57198;52.082;5.108;2023-02-28T00:35:00;4.15;;;3.20;;
69912;SDS011;57198;52.082;5.108;2023-02-28T00:37:27;6.03;;;4.00;;
69912;SDS011;57198;52.082;5.108;2023-02-28T00:39:55;4.05;;;3.58;;
69912;SDS011;57198;52.082;5.108;2023-02-28T00:42:22;4.95;;;3.63;;
69912;SDS011;57198;52.082;5.108;2023-02-28T00:44:50;5.10;;;2.40;;
69912;SDS011;57198;52.082;5.108;2023-02-28T00:47:17;3.22;;;2.75;;
69912;SDS011;57198;52.082;5.108;2023-02-28T00:49:44;4.57;;;2.75;;
69912;SDS011;57198;52.082;5.108;2023-02-28T00:52:12;4.65;;;2.85;;
69912;SDS011;57198;52.082;5.108;2023-02-28T00:54:39;3.78;;;3.28;;
69912;SDS011;57198;52.082;5.108;2023-02-28T00:57:06;4.28;;;2.63;;
69912;SDS011;57198;52.082;5.108;2023-02-28T00:59:34;4.15;;;3.08;;
69912;SDS011;57198;52.082;5.108;2023-02-28T01:02:01;3.50;;;3.25;;
69912;SDS011;57198;52.082;5.108;2023-02-28T01:04:28;4.03;;;2.72;;
69912;SDS011;57198;52.082;5.108;2023-02-28T01:06:59;5.97;;;3.20;;
69912;SDS011;57198;52.082;5.108;2023-02-28T01:09:27;3.33;;;3.03;;
69912;SDS011;57198;52.082;5.108;2023-02-28T01:11:54;5.35;;;2.33;;
69912;SDS011;57198;52.082;5.108;2023-02-28T01:14:23;4.40;;;3.17;;
69912;SDS011;57198;52.082;5.108;2023-02-28T01:16:50;3.38;;;2.65;;
69912;SDS011;57198;52.082;5.108;2023-02-28T01:19:18;3.33;;;2.90;;
69912;SDS011;57198;52.082;5.108;2023-02-28T01:21:45;4.72;;;3.17;;
69912;SDS011;57198;52.082;5.108;2023-02-28T01:24:13;2.55;;;2.35;;
69912;SDS011;57198;52.082;5.108;2023-02-28T01:26:40;6.68;;;2.55;;
69912;SDS011;57198;52.082;5.108;2023-02-28T01:29:07;2.95;;;2.63;;
69912;SDS011;57198;52.082;5.108;2023-02-28T01:31:35;3.40;;;3.10;;
69912;SDS011;57198;52.082;5.108;2023-02-28T01:34:02;3.42;;;2.80;;
69912;SDS011;57198;52.082;5.108;2023-02-28T01:36:30;4.28;;;2.45;;
69912;SDS011;57198;52.082;5.108;2023-02-28T01:38:57;5.95;;;2.65;;
69912;SDS011;57198;52.082;5.108;2023-02-28T01:41:26;4.40;;;3.22;;
69912;SDS011;57198;52.082;5.108;2023-02-28T01:46:22;3.00;;;2.80;;
69912;SDS011;57198;52.082;5.108;2023-02-28T01:48:55;3.28;;;2.50;;
69912;SDS011;57198;52.082;5.108;2023-02-28T01:51:29;3.55;;;3.08;;
69912;SDS011;57198;52.082;5.108;2023-02-28T01:53:59;2.80;;;2.60;;
69912;SDS011;57198;52.082;5.108;2023-02-28T01:56:28;3.42;;;2.92;;
69912;SDS011;57198;52.082;5.108;2023-02-28T01:58:56;3.28;;;2.60;;
69912;SDS011;57198;52.082;5.108;2023-02-28T02:01:24;3.75;;;2.63;;
69912;SDS011;57198;52.082;5.108;2023-02-28T02:03:54;4.25;;;2.63;;
69912;SDS011;57198;52.082;5.108;2023-02-28T02:06:34;4.80;;;2.88;;
69912;SDS011;57198;52.082;5.108;2023-02-28T02:09:02;5.00;;;2.88;;
69912;SDS011;57198;52.082;5.108;2023-02-28T02:11:30;3.85;;;3.38;;
69912;SDS011;57198;52.082;5.108;2023-02-28T02:14:40;3.30;;;2.90;;
69912;SDS011;57198;52.082;5.108;2023-02-28T02:19:41;3.58;;;3.08;;
69912;SDS011;57198;52.082;5.108;2023-02-28T02:24:49;5.25;;;2.72;;
69912;SDS011;57198;52.082;5.108;2023-02-28T02:27:34;4.00;;;3.03;;
69912;SDS011;57198;52.082;5.108;2023-02-28T02:35:29;5.32;;;3.40;;
69912;SDS011;57198;52.082;5.108;2023-02-28T02:38:01;4.60;;;4.20;;
69912;SDS011;57198;52.082;5.108;2023-02-28T02:40:46;4.88;;;3.05;;
69912;SDS011;57198;52.082;5.108;2023-02-28T02:43:29;3.78;;;2.92;;
69912;SDS011;57198;52.082;5.108;2023-02-28T02:46:02;7.95;;;3.03;;
69912;SDS011;57198;52.082;5.108;2023-02-28T02:48:32;3.83;;;3.53;;
69912;SDS011;57198;52.082;5.108;2023-02-28T02:51:01;3.75;;;3.45;;
69912;SDS011;57198;52.082;5.108;2023-02-28T02:53:33;7.32;;;2.75;;
69912;SDS011;57198;52.082;5.108;2023-02-28T02:56:02;3.78;;;2.80;;
69912;SDS011;57198;52.082;5.108;2023-02-28T02:58:32;3.80;;;2.70;;
69912;SDS011;57198;52.082;5.108;2023-02-28T03:01:01;3.67;;;2.80;;
69912;SDS011;57198;52.082;5.108;2023-02-28T03:03:30;5.13;;;2.80;;
69912;SDS011;57198;52.082;5.108;2023-02-28T03:05:59;3.13;;;2.83;;
69912;SDS011;57198;52.082;5.108;2023-02-28T03:08:28;5.35;;;3.15;;
69912;SDS011;57198;52.082;5.108;2023-02-28T03:11:00;3.28;;;2.88;;
69912;SDS011;57198;52.082;5.108;2023-02-28T03:19:15;4.15;;;3.30;;
69912;SDS011;57198;52.082;5.108;2023-02-28T03:21:46;5.93;;;3.00;;
69912;SDS011;57198;52.082;5.108;2023-02-28T03:27:34;4.07;;;3.00;;
69912;SDS011;57198;52.082;5.108;2023-02-28T03:30:10;3.15;;;2.83;;
69912;SDS011;57198;52.082;5.108;2023-02-28T03:35:22;3.47;;;3.05;;
69912;SDS011;57198;52.082;5.108;2023-02-28T03:37:52;2.95;;;2.67;;
69912;SDS011;57198;52.082;5.108;2023-02-28T03:40:21;3.90;;;3.42;;
69912;SDS011;57198;52.082;5.108;2023-02-28T03:42:51;4.22;;;3.05;;
69912;SDS011;57198;52.082;5.108;2023-02-28T03:45:22;3.53;;;3.00;;
69912;SDS011;57198;52.082;5.108;2023-02-28T03:48:00;5.15;;;3.33;;
69912;SDS011;57198;52.082;5.108;2023-02-28T03:53:03;4.35;;;3.40;;
69912;SDS011;57198;52.082;5.108;2023-02-28T03:55:33;5.18;;;2.67;;
69912;SDS011;57198;52.082;5.108;2023-02-28T03:58:05;3.38;;;3.17;;
69912;SDS011;57198;52.082;5.108;2023-02-28T04:00:39;3.22;;;2.63;;
69912;SDS011;57198;52.082;5.108;2023-02-28T04:03:08;3.45;;;3.00;;
69912;SDS011;57198;52.082;5.108;2023-02-28T04:05:44;4.22;;;3.35;;
69912;SDS011;57198;52.082;5.108;2023-02-28T04:08:15;4.47;;;2.83;;
69912;SDS011;57198;52.082;5.108;2023-02-28T04:10:43;5.78;;;3.17;;
69912;SDS011;57198;52.082;5.108;2023-02-28T04:13:12;4.20;;;3.20;;
69912;SDS011;57198;52.082;5.108;2023-02-28T04:15:40;4.78;;;3.40;;
69912;SDS011;57198;52.082;5.108;2023-02-28T04:18:08;6.05;;;3.67;;
69912;SDS011;57198;52.082;5.108;2023-02-28T04:20:35;5.43;;;3.83;;
69912;SDS011;57198;52.082;5.108;2023-02-28T04:23:03;5.97;;;3.25;;
69912;SDS011;57198;52.082;5.108;2023-02-28T04:25:30;4.65;;;3.58;;
69912;SDS011;57198;52.082;5.108;2023-02-28T04:27:57;3.95;;;3.65;;
69912;SDS011;57198;52.082;5.108;2023-02-28T04:30:25;6.50;;;3.38;;
69912;SDS011;57198;52.082;5.108;2023-02-28T04:32:52;4.50;;;3.80;;
69912;SDS011;57198;52.082;5.108;2023-02-28T04:35:19;5.65;;;4.03;;
69912;SDS011;57198;52.082;5.108;2023-02-28T04:37:47;5.22;;;3.50;;
69912;SDS011;57198;52.082;5.108;2023-02-28T04:40:14;5.55;;;4.05;;
69912;SDS011;57198;52.082;5.108;2023-02-28T04:42:41;4.75;;;3.40;;
69912;SDS011;57198;52.082;5.108;2023-02-28T04:45:09;4.70;;;3.58;;
69912;SDS011;57198;52.082;5.108;2023-02-28T04:47:36;4.82;;;4.32;;
69912;SDS011;57198;52.082;5.108;2023-02-28T04:50:04;4.70;;;3.80;;
69912;SDS011;57198;52.082;5.108;2023-02-28T04:52:31;5.80;;;4.00;;
69912;SDS011;57198;52.082;5.108;2023-02-28T04:54:58;6.65;;;4.03;;
69912;SDS011;57198;52.082;5.108;2023-02-28T04:57:26;4.55;;;3.55;;
69912;SDS011;57198;52.082;5.108;2023-02-28T04:59:53;4.97;;;3.80;;
69912;SDS011;57198;52.082;5.108;2023-02-28T05:02:20;4.10;;;3.58;;
69912;SDS011;57198;52.082;5.108;2023-02-28T05:04:50;5.05;;;3.60;;
69912;SDS011;57198;52.082;5.108;2023-02-28T05:07:17;3.75;;;3.05;;
69912;SDS011;57198;52.082;5.108;2023-02-28T05:09:44;3.92;;;3.53;;
69912;SDS011;57198;52.082;5.108;2023-02-28T05:12:12;4.32;;;4.03;;
69912;SDS011;57198;52.082;5.108;2023-02-28T05:14:39;3.63;;;3.20;;
69912;SDS011;57198;52.082;5.108;2023-02-28T05:17:07;3.65;;;3.15;;
69912;SDS011;57198;52.082;5.108;2023-02-28T05:19:35;3.65;;;3.35;;
69912;SDS011;57198;52.082;5.108;2023-02-28T05:22:02;3.70;;;3.40;;
69912;SDS011;57198;52.082;5.108;2023-02-28T05:24:30;3.35;;;3.05;;
69912;SDS011;57198;52.082;5.108;2023-02-28T05:26:57;3.85;;;3.65;;
69912;SDS011;57198;52.082;5.108;2023-02-28T05:29:25;4.00;;;3.30;;
69912;SDS011;57198;52.082;5.108;2023-02-28T05:31:52;4.63;;;3.55;;
69912;SDS011;57198;52.082;5.108;2023-02-28T05:34:19;4.53;;;3.55;;
69912;SDS011;57198;52.082;5.108;2023-02-28T05:36:47;3.22;;;3.03;;
69912;SDS011;57198;52.082;5.108;2023-02-28T05:39:14;3.10;;;2.80;;
69912;SDS011;57198;52.082;5.108;2023-02-28T05:41:42;4.32;;;4.00;;
69912;SDS011;57198;52.082;5.108;2023-02-28T05:44:09;4.07;;;3.78;;
69912;SDS011;57198;52.082;5.108;2023-02-28T05:46:37;4.55;;;4.15;;
69912;SDS011;57198;52.082;5.108;2023-02-28T05:49:04;4.38;;;3.67;;
69912;SDS011;57198;52.082;5.108;2023-02-28T05:51:32;6.25;;;3.90;;
69912;SDS011;57198;52.082;5.108;2023-02-28T05:54:00;4.10;;;3.80;;
69912;SDS011;57198;52.082;5.108;2023-02-28T05:56:28;4.25;;;3.97;;
69912;SDS011;57198;52.082;5.108;2023-02-28T05:58:56;4.22;;;3.83;;
69912;SDS011;57198;52.082;5.108;2023-02-28T06:01:24;4.10;;;3.70;;
69912;SDS011;57198;52.082;5.108;2023-02-28T06:03:54;3.53;;;3.22;;
69912;SDS011;57198;52.082;5.108;2023-02-28T06:06:21;4.70;;;4.10;;
69912;SDS011;57198;52.082;5.108;2023-02-28T06:08:48;5.57;;;3.97;;
69912;SDS011;57198;52.082;5.108;2023-02-28T06:11:16;7.05;;;4.32;;
69912;SDS011;57198;52.082;5.108;2023-02-28T06:13:43;5.15;;;4.53;;
69912;SDS011;57198;52.082;5.108;2023-02-28T06:16:11;6.13;;;4.43;;
69912;SDS011;57198;52.082;5.108;2023-02-28T06:18:38;4.00;;;3.70;;
69912;SDS011;57198;52.082;5.108;2023-02-28T06:21:06;4.83;;;4.17;;
69912;SDS011;57198;52.082;5.108;2023-02-28T06:23:35;8.10;;;4.22;;
69912;SDS011;57198;52.082;5.108;2023-02-28T06:26:02;4.00;;;3.75;;
69912;SDS011;57198;52.082;5.108;2023-02-28T06:28:30;5.55;;;4.47;;
69912;SDS011;57198;52.082;5.108;2023-02-28T06:30:57;4.65;;;4.18;;
69912;SDS011;57198;52.082;5.108;2023-02-28T06:33:24;4.10;;;3.78;;
69912;SDS011;57198;52.082;5.108;2023-02-28T06:35:52;4.53;;;4.13;;
69912;SDS011;57198;52.082;5.108;2023-02-28T06:38:20;5.10;;;4.70;;
69912;SDS011;57198;52.082;5.108;2023-02-28T06:40:54;5.38;;;4.60;;
69912;SDS011;57198;52.082;5.108;2023-02-28T06:43:22;4.63;;;4.20;;
69912;SDS011;57198;52.082;5.108;2023-02-28T06:45:49;4.70;;;4.18;;
69912;SDS011;57198;52.082;5.108;2023-02-28T06:48:17;5.55;;;4.28;;
69912;SDS011;57198;52.082;5.108;2023-02-28T06:50:45;5.80;;;4.68;;
69912;SDS011;57198;52.082;5.108;2023-02-28T06:53:13;9.00;;;4.10;;
69912;SDS011;57198;52.082;5.108;2023-02-28T06:55:41;6.10;;;4.70;;
69912;SDS011;57198;52.082;5.108;2023-02-28T06:58:08;5.95;;;4.80;;
69912;SDS011;57198;52.082;5.108;2023-02-28T07:00:42;4.88;;;4.25;;
69912;SDS011;57198;52.082;5.108;2023-02-28T07:03:11;7.55;;;4.63;;
69912;SDS011;57198;52.082;5.108;2023-02-28T07:05:38;5.22;;;4.63;;
69912;SDS011;57198;52.082;5.108;2023-02-28T07:08:06;5.40;;;5.00;;
69912;SDS011;57198;52.082;5.108;2023-02-28T07:10:33;5.20;;;4.60;;
69912;SDS011;57198;52.082;5.108;2023-02-28T07:13:01;4.45;;;4.05;;
69912;SDS011;57198;52.082;5.108;2023-02-28T07:15:28;4.80;;;4.35;;
69912;SDS011;57198;52.082;5.108;2023-02-28T07:17:56;3.85;;;3.55;;
69912;SDS011;57198;52.082;5.108;2023-02-28T07:20:23;3.80;;;3.47;;
69912;SDS011;57198;52.082;5.108;2023-02-28T07:22:51;4.78;;;4.38;;
69912;SDS011;57198;52.082;5.108;2023-02-28T07:25:23;4.80;;;4.40;;
69912;SDS011;57198;52.082;5.108;2023-02-28T07:27:50;4.40;;;4.00;;
69912;SDS011;57198;52.082;5.108;2023-02-28T07:30:18;8.40;;;5.05;;
69912;SDS011;57198;52.082;5.108;2023-02-28T07:32:45;5.80;;;4.60;;
69912;SDS011;57198;52.082;5.108;2023-02-28T07:35:13;5.50;;;4.55;;
69912;SDS011;57198;52.082;5.108;2023-02-28T07:37:41;5.07;;;4.68;;
69912;SDS011;57198;52.082;5.108;2023-02-28T07:40:10;4.80;;;4.30;;
69912;SDS011;57198;52.082;5.108;2023-02-28T07:42:40;6.70;;;4.10;;
69912;SDS011;57198;52.082;5.108;2023-02-28T07:45:08;5.00;;;4.47;;
69912;SDS011;57198;52.082;5.108;2023-02-28T07:47:38;5.05;;;4.55;;
69912;SDS011;57198;52.082;5.108;2023-02-28T07:50:06;5.88;;;4.05;;
69912;SDS011;57198;52.082;5.108;2023-02-28T07:52:33;6.82;;;4.75;;
69912;SDS011;57198;52.082;5.108;2023-02-28T07:55:01;6.60;;;4.47;;
69912;SDS011;57198;52.082;5.108;2023-02-28T07:57:28;7.60;;;5.35;;
69912;SDS011;57198;52.082;5.108;2023-02-28T07:59:55;6.72;;;4.57;;
69912;SDS011;57198;52.082;5.108;2023-02-28T08:02:23;5.75;;;4.68;;
69912;SDS011;57198;52.082;5.108;2023-02-28T08:04:51;5.80;;;4.80;;
69912;SDS011;57198;52.082;5.108;2023-02-28T08:07:18;6.10;;;4.20;;
69912;SDS011;57198;52.082;5.108;2023-02-28T08:09:46;5.38;;;4.30;;
69912;SDS011;57198;52.082;5.108;2023-02-28T08:12:13;5.28;;;4.47;;
69912;SDS011;57198;52.082;5.108;2023-02-28T08:14:41;6.25;;;4.65;;
69912;SDS011;57198;52.082;5.108;2023-02-28T08:17:09;8.60;;;4.68;;
69912;SDS011;57198;52.082;5.108;2023-02-28T08:19:36;5.43;;;3.90;;
69912;SDS011;57198;52.082;5.108;2023-02-28T08:22:04;6.28;;;5.22;;
69912;SDS011;57198;52.082;5.108;2023-02-28T08:24:31;6.13;;;4.78;;
69912;SDS011;57198;52.082;5.108;2023-02-28T08:26:59;5.07;;;4.60;;
69912;SDS011;57198;52.082;5.108;2023-02-28T08:29:27;6.50;;;4.65;;
69912;SDS011;57198;52.082;5.108;2023-02-28T08:31:55;5.82;;;4.80;;
69912;SDS011;57198;52.082;5.108;2023-02-28T08:34:25;4.80;;;3.95;;
69912;SDS011;57198;52.082;5.108;2023-02-28T08:36:52;5.18;;;4.78;;
69912;SDS011;57198;52.082;5.108;2023-02-28T08:39:20;5.63;;;5.13;;
69912;SDS011;57198;52.082;5.108;2023-02-28T08:41:47;4.55;;;4.15;;
69912;SDS011;57198;52.082;5.108;2023-02-28T08:44:32;4.93;;;4.50;;
69912;SDS011;57198;52.082;5.108;2023-02-28T08:47:00;6.38;;;4.40;;
69912;SDS011;57198;52.082;5.108;2023-02-28T08:49:28;5.18;;;4.28;;
69912;SDS011;57198;52.082;5.108;2023-02-28T08:51:55;4.75;;;3.67;;
69912;SDS011;57198;52.082;5.108;2023-02-28T08:54:24;4.85;;;3.40;;
69912;SDS011;57198;52.082;5.108;2023-02-28T08:56:52;4.30;;;3.90;;
69912;SDS011;57198;52.082;5.108;2023-02-28T08:59:19;3.80;;;3.08;;
69912;SDS011;57198;52.082;5.108;2023-02-28T09:01:47;5.50;;;3.90;;
69912;SDS011;57198;52.082;5.108;2023-02-28T09:04:15;5.75;;;3.53;;
69912;SDS011;57198;52.082;5.108;2023-02-28T09:06:45;3.72;;;3.30;;
69912;SDS011;57198;52.082;5.108;2023-02-28T09:09:15;3.47;;;3.28;;
69912;SDS011;57198;52.082;5.108;2023-02-28T09:11:43;3.85;;;3.50;;
69912;SDS011;57198;52.082;5.108;2023-02-28T09:14:10;6.68;;;3.85;;
69912;SDS011;57198;52.082;5.108;2023-02-28T09:16:38;4.05;;;3.65;;
69912;SDS011;57198;52.082;5.108;2023-02-28T09:19:05;3.83;;;3.45;;
69912;SDS011;57198;52.082;5.108;2023-02-28T09:21:32;5.45;;;3.97;;
69912;SDS011;57198;52.082;5.108;2023-02-28T09:24:00;4.70;;;4.13;;
69912;SDS011;57198;52.082;5.108;2023-02-28T09:26:27;5.00;;;3.13;;
69912;SDS011;57198;52.082;5.108;2023-02-28T09:29:08;3.28;;;2.90;;
69912;SDS011;57198;52.082;5.108;2023-02-28T09:31:35;3.05;;;2.85;;
69912;SDS011;57198;52.082;5.108;2023-02-28T09:34:03;4.75;;;3.40;;
69912;SDS011;57198;52.082;5.108;2023-02-28T09:36:31;4.15;;;3.72;;
69912;SDS011;57198;52.082;5.108;2023-02-28T09:39:10;4.45;;;3.97;;
69912;SDS011;57198;52.082;5.108;2023-02-28T09:41:39;2.95;;;2.70;;
69912;SDS011;57198;52.082;5.108;2023-02-28T09:44:16;3.30;;;3.00;;
69912;SDS011;57198;52.082;5.108;2023-02-28T09:46:48;5.90;;;3.25;;
69912;SDS011;57198;52.082;5.108;2023-02-28T09:49:17;3.63;;;3.38;;
69912;SDS011;57198;52.082;5.108;2023-02-28T09:51:59;4.60;;;4.15;;
69912;SDS011;57198;52.082;5.108;2023-02-28T09:54:31;3.55;;;3.25;;
69912;SDS011;57198;52.082;5.108;2023-02-28T10:07:01;3.60;;;3.35;;
69912;SDS011;57198;52.082;5.108;2023-02-28T10:09:31;3.08;;;2.88;;
69912;SDS011;57198;52.082;5.108;2023-02-28T10:12:03;5.03;;;3.00;;
69912;SDS011;57198;52.082;5.108;2023-02-28T10:14:32;3.83;;;3.28;;
69912;SDS011;57198;52.082;5.108;2023-02-28T10:24:47;2.80;;;2.60;;
69912;SDS011;57198;52.082;5.108;2023-02-28T10:27:17;4.88;;;3.10;;
69912;SDS011;57198;52.082;5.108;2023-02-28T10:29:55;2.70;;;2.60;;
69912;SDS011;57198;52.082;5.108;2023-02-28T10:32:24;2.92;;;2.72;;
69912;SDS011;57198;52.082;5.108;2023-02-28T10:35:14;3.67;;;3.47;;
69912;SDS011;57198;52.082;5.108;2023-02-28T10:37:42;2.95;;;2.75;;
69912;SDS011;57198;52.082;5.108;2023-02-28T10:43:14;2.67;;;2.47;;
69912;SDS011;57198;52.082;5.108;2023-02-28T10:46:19;6.53;;;3.13;;
69912;SDS011;57198;52.082;5.108;2023-02-28T10:48:43;3.00;;;2.35;;
69912;SDS011;57198;52.082;5.108;2023-02-28T10:51:12;10.75;;;2.58;;
69912;SDS011;57198;52.082;5.108;2023-02-28T10:56:26;4.70;;;2.97;;
69912;SDS011;57198;52.082;5.108;2023-02-28T10:59:20;6.30;;;2.40;;
69912;SDS011;57198;52.082;5.108;2023-02-28T11:01:50;2.65;;;2.42;;
69912;SDS011;57198;52.082;5.108;2023-02-28T11:07:35;3.15;;;1.95;;
69912;SDS011;57198;52.082;5.108;2023-02-28T11:09:38;7.70;;;2.20;;
69912;SDS011;57198;52.082;5.108;2023-02-28T11:12:20;1.90;;;1.70;;
69912;SDS011;57198;52.082;5.108;2023-02-28T11:14:52;1.40;;;1.30;;
69912;SDS011;57198;52.082;5.108;2023-02-28T11:17:21;5.20;;;1.67;;
69912;SDS011;57198;52.082;5.108;2023-02-28T11:19:51;4.97;;;1.55;;
69912;SDS011;57198;52.082;5.108;2023-02-28T11:22:20;6.85;;;1.63;;
69912;SDS011;57198;52.082;5.108;2023-02-28T11:24:50;1.67;;;1.30;;
69912;SDS011;57198;52.082;5.108;2023-02-28T11:27:25;4.63;;;1.35;;
69912;SDS011;57198;52.082;5.108;2023-02-28T11:29:53;2.53;;;1.33;;
69912;SDS011;57198;52.082;5.108;2023-02-28T11:32:21;4.82;;;1.38;;
69912;SDS011;57198;52.082;5.108;2023-02-28T11:37:35;5.37;;;1.00;;
69912;SDS011;57198;52.082;5.108;2023-02-28T11:40:13;1.67;;;1.10;;
69912;SDS011;57198;52.082;5.108;2023-02-28T11:42:50;2.33;;;1.02;;
69912;SDS011;57198;52.082;5.108;2023-02-28T11:48:01;1.73;;;1.27;;
69912;SDS011;57198;52.082;5.108;2023-02-28T11:53:10;3.55;;;1.63;;
69912;SDS011;57198;52.082;5.108;2023-02-28T11:55:42;1.20;;;0.90;;
69912;SDS011;57198;52.082;5.108;2023-02-28T12:01:12;1.40;;;1.10;;
69912;SDS011;57198;52.082;5.108;2023-02-28T12:13:58;1.50;;;1.20;;
69912;SDS011;57198;52.082;5.108;2023-02-28T12:16:37;1.30;;;1.10;;
69912;SDS011;57198;52.082;5.108;2023-02-28T12:24:21;3.20;;;1.23;;
69912;SDS011;57198;52.082;5.108;2023-02-28T12:26:53;2.50;;;1.20;;
69912;SDS011;57198;52.082;5.108;2023-02-28T12:29:29;3.60;;;1.40;;
69912;SDS011;57198;52.082;5.108;2023-02-28T12:32:14;10.10;;;1.35;;
69912;SDS011;57198;52.082;5.108;2023-02-28T12:34:46;8.90;;;1.50;;
69912;SDS011;57198;52.082;5.108;2023-02-28T12:37:20;3.53;;;1.08;;
69912;SDS011;57198;52.082;5.108;2023-02-28T12:39:51;4.72;;;1.13;;
69912;SDS011;57198;52.082;5.108;2023-02-28T12:44:49;1.10;;;1.00;;
69912;SDS011;57198;52.082;5.108;2023-02-28T12:47:19;2.72;;;1.15;;
69912;SDS011;57198;52.082;5.108;2023-02-28T12:49:53;5.95;;;1.52;;
69912;SDS011;57198;52.082;5.108;2023-02-28T12:52:44;1.58;;;1.30;;
69912;SDS011;57198;52.082;5.108;2023-02-28T12:55:15;5.33;;;1.80;;
69912;SDS011;57198;52.082;5.108;2023-02-28T13:00:35;4.45;;;1.40;;
69912;SDS011;57198;52.082;5.108;2023-02-28T13:11:53;1.70;;;1.00;;
69912;SDS011;57198;52.082;5.108;2023-02-28T13:19:31;2.10;;;1.20;;
69912;SDS011;57198;52.082;5.108;2023-02-28T13:22:00;1.47;;;1.10;;
69912;SDS011;57198;52.082;5.108;2023-02-28T13:24:42;4.60;;;1.48;;
69912;SDS011;57198;52.082;5.108;2023-02-28T13:27:11;1.98;;;1.33;;
69912;SDS011;57198;52.082;5.108;2023-02-28T13:29:40;1.67;;;1.50;;
69912;SDS011;57198;52.082;5.108;2023-02-28T13:34:37;1.97;;;1.37;;
69912;SDS011;57198;52.082;5.108;2023-02-28T13:39:50;3.85;;;1.73;;
69912;SDS011;57198;52.082;5.108;2023-02-28T13:47:32;1.83;;;1.73;;
69912;SDS011;57198;52.082;5.108;2023-02-28T14:00:46;2.77;;;1.73;;
69912;SDS011;57198;52.082;5.108;2023-02-28T14:03:36;2.20;;;1.50;;
69912;SDS011;57198;52.082;5.108;2023-02-28T14:08:37;4.80;;;1.60;;
69912;SDS011;57198;52.082;5.108;2023-02-28T14:11:06;2.42;;;1.80;;
69912;SDS011;57198;52.082;5.108;2023-02-28T14:13:37;4.07;;;2.27;;
69912;SDS011;57198;52.082;5.108;2023-02-28T14:16:13;2.17;;;1.90;;
69912;SDS011;57198;52.082;5.108;2023-02-28T14:18:52;1.83;;;1.73;;
69912;SDS011;57198;52.082;5.108;2023-02-28T14:21:23;2.22;;;2.10;;
69912;SDS011;57198;52.082;5.108;2023-02-28T14:29:14;2.38;;;2.03;;
69912;SDS011;57198;52.082;5.108;2023-02-28T14:32:06;2.28;;;1.65;;
69912;SDS011;57198;52.082;5.108;2023-02-28T14:35:00;7.10;;;2.67;;
69912;SDS011;57198;52.082;5.108;2023-02-28T14:37:44;2.05;;;1.95;;
69912;SDS011;57198;52.082;5.108;2023-02-28T14:40:28;2.50;;;2.20;;
69912;SDS011;57198;52.082;5.108;2023-02-28T14:42:58;3.17;;;2.38;;
69912;SDS011;57198;52.082;5.108;2023-02-28T14:45:30;4.03;;;1.92;;
69912;SDS011;57198;52.082;5.108;2023-02-28T14:48:15;7.55;;;2.20;;
69912;SDS011;57198;52.082;5.108;2023-02-28T14:50:48;2.45;;;1.80;;
69912;SDS011;57198;52.082;5.108;2023-02-28T14:53:17;2.20;;;2.00;;
69912;SDS011;57198;52.082;5.108;2023-02-28T14:55:47;3.03;;;2.15;;
69912;SDS011;57198;52.082;5.108;2023-02-28T14:58:29;1.90;;;1.80;;
69912;SDS011;57198;52.082;5.108;2023-02-28T15:00:58;2.30;;;2.10;;
69912;SDS011;57198;52.082;5.108;2023-02-28T15:03:35;3.53;;;1.90;;
69912;SDS011;57198;52.082;5.108;2023-02-28T15:06:06;5.27;;;2.90;;
69912;SDS011;57198;52.082;5.108;2023-02-28T15:08:39;2.22;;;1.85;;
69912;SDS011;57198;52.082;5.108;2023-02-28T15:11:08;4.38;;;1.90;;
69912;SDS011;57198;52.082;5.108;2023-02-28T15:13:40;2.30;;;2.10;;
69912;SDS011;57198;52.082;5.108;2023-02-28T15:16:20;2.58;;;2.10;;
69912;SDS011;57198;52.082;5.108;2023-02-28T15:21:20;3.13;;;2.53;;
69912;SDS011;57198;52.082;5.108;2023-02-28T15:23:49;2.83;;;2.13;;
69912;SDS011;57198;52.082;5.108;2023-02-28T15:26:20;2.95;;;2.38;;
69912;SDS011;57198;52.082;5.108;2023-02-28T15:28:50;3.90;;;2.50;;
69912;SDS011;57198;52.082;5.108;2023-02-28T15:33:57;2.70;;;2.50;;
69912;SDS011;57198;52.082;5.108;2023-02-28T15:36:26;2.85;;;2.13;;
69912;SDS011;57198;52.082;5.108;2023-02-28T15:38:54;4.35;;;2.55;;
69912;SDS011;57198;52.082;5.108;2023-02-28T15:41:36;3.28;;;2.40;;
69912;SDS011;57198;52.082;5.108;2023-02-28T15:46:54;2.83;;;2.63;;
69912;SDS011;57198;52.082;5.108;2023-02-28T15:49:23;2.70;;;2.50;;
69912;SDS011;57198;52.082;5.108;2023-02-28T15:51:51;7.55;;;6.57;;
69912;SDS011;57198;52.082;5.108;2023-02-28T15:54:24;8.68;;;7.80;;
69912;SDS011;57198;52.082;5.108;2023-02-28T15:56:56;6.47;;;5.90;;
69912;SDS011;57198;52.082;5.108;2023-02-28T15:59:25;2.70;;;2.50;;
69912;SDS011;57198;52.082;5.108;2023-02-28T16:02:04;2.20;;;2.10;;
69912;SDS011;57198;52.082;5.108;2023-02-28T16:04:54;3.47;;;2.53;;
69912;SDS011;57198;52.082;5.108;2023-02-28T16:07:22;2.25;;;2.05;;
69912;SDS011;57198;52.082;5.108;2023-02-28T16:09:50;4.57;;;2.33;;
69912;SDS011;57198;52.082;5.108;2023-02-28T16:12:20;2.95;;;2.42;;
69912;SDS011;57198;52.082;5.108;2023-02-28T16:14:48;2.28;;;2.08;;
69912;SDS011;57198;52.082;5.108;2023-02-28T16:17:20;7.55;;;2.10;;
69912;SDS011;57198;52.082;5.108;2023-02-28T16:19:49;4.45;;;2.13;;
69912;SDS011;57198;52.082;5.108;2023-02-28T16:22:16;2.53;;;1.90;;
69912;SDS011;57198;52.082;5.108;2023-02-28T16:24:44;2.63;;;2.42;;
69912;SDS011;57198;52.082;5.108;2023-02-28T16:27:16;4.93;;;2.33;;
69912;SDS011;57198;52.082;5.108;2023-02-28T16:29:45;2.22;;;2.03;;
69912;SDS011;57198;52.082;5.108;2023-02-28T16:32:14;2.42;;;2.20;;
69912;SDS011;57198;52.082;5.108;2023-02-28T16:34:43;2.73;;;2.53;;
69912;SDS011;57198;52.082;5.108;2023-02-28T16:37:12;3.63;;;2.15;;
69912;SDS011;57198;52.082;5.108;2023-02-28T16:39:41;2.80;;;2.60;;
69912;SDS011;57198;52.082;5.108;2023-02-28T16:42:14;2.47;;;2.28;;
69912;SDS011;57198;52.082;5.108;2023-02-28T16:44:42;3.78;;;2.30;;
69912;SDS011;57198;52.082;5.108;2023-02-28T16:47:10;4.47;;;2.30;;
69912;SDS011;57198;52.082;5.108;2023-02-28T16:49:38;3.75;;;2.20;;
69912;SDS011;57198;52.082;5.108;2023-02-28T16:52:09;6.15;;;2.45;;
69912;SDS011;57198;52.082;5.108;2023-02-28T16:54:37;5.75;;;2.88;;
69912;SDS011;57198;52.082;5.108;2023-02-28T16:57:05;3.47;;;2.72;;
69912;SDS011;57198;52.082;5.108;2023-02-28T16:59:33;4.53;;;2.93;;
69912;SDS011;57198;52.082;5.108;2023-02-28T17:02:01;3.55;;;3.25;;
69912;SDS011;57198;52.082;5.108;2023-02-28T17:04:29;3.10;;;2.55;;
69912;SDS011;57198;52.082;5.108;2023-02-28T17:06:57;2.22;;;2.03;;
69912;SDS011;57198;52.082;5.108;2023-02-28T17:09:24;2.72;;;2.47;;
69912;SDS011;57198;52.082;5.108;2023-02-28T17:12:07;2.30;;;2.20;;
69912;SDS011;57198;52.082;5.108;2023-02-28T17:14:35;2.35;;;2.20;;
69912;SDS011;57198;52.082;5.108;2023-02-28T17:17:04;2.78;;;2.58;;
69912;SDS011;57198;52.082;5.108;2023-02-28T17:19:31;2.22;;;2.13;;
69912;SDS011;57198;52.082;5.108;2023-02-28T17:21:59;2.58;;;2.38;;